sensor_id;sensor_type;location;lat;lon;timestamp;pressure;altitude;pressure_sealevel;temperature;humidity
10097;BME280;5087;42.662;23.466;2022-11-18T03:15:54;94408.59;;;3.78;100.00
10097;BME280;5087;42.662;23.466;2022-11-18T03:18:28;94412.53;;;3.95;100.00
10097;BME280;5087;42.662;23.466;2022-11-18T03:21:06;94415.63;;;4.16;100.00
10097;BME280;5087;42.662;23.466;2022-11-18T03:23:37;94419.53;;;4.24;100.00
10097;BME280;5087;42.662;23.466;2022-11-18T03:26:10;94406.19;;;3.91;100.00
10097;BME280;5087;42.662;23.466;2022-11-18T03:28:42;94413.25;;;3.87;100.00
10097;BME280;5087;42.662;23.466;2022-11-18T03:31:15;94401.81;;;3.81;100.00
10097;BME280;5087;42.662;23.466;2022-11-18T03:33:47;94394.03;;;3.79;100.00
10097;BME280;5087;42.662;23.466;2022-11-18T03:36:17;94411.38;;;4.01;100.00
10097;BME280;5087;42.662;23.466;2022-11-18T03:38:49;94399.22;;;3.76;100.00
10097;BME280;5087;42.662;23.466;2022-11-18T03:41:18;94409.56;;;3.83;100.00
10097;BME280;5087;42.662;23.466;2022-11-18T03:43:49;94400.59;;;3.73;100.00
10097;BME280;5087;42.662;23.466;2022-11-18T03:46:22;94412.97;;;4.02;100.00
10097;BME280;5087;42.662;23.466;2022-11-18T03:48:55;94403.38;;;3.68;100.00
10097;BME280;5087;42.662;23.466;2022-11-18T03:51:27;94410.66;;;3.82;100.00
10097;BME280;5087;42.662;23.466;2022-11-18T03:54:01;94394.84;;;3.66;100.00
10097;BME280;5087;42.662;23.466;2022-11-18T03:56:31;94391.44;;;3.46;100.00
10097;BME280;5087;42.662;23.466;2022-11-18T03:59:09;94397.56;;;3.33;100.00
10097;BME280;5087;42.662;23.466;2022-11-18T04:01:43;94385.50;;;3.16;100.00
10097;BME280;5087;42.662;23.466;2022-11-18T04:04:12;94410.38;;;3.36;100.00
10097;BME280;5087;42.662;23.466;2022-11-18T04:06:42;94391.88;;;3.21;100.00
10097;BME280;5087;42.662;23.466;2022-11-18T04:09:14;94399.75;;;3.31;100.00
10097;BME280;5087;42.662;23.466;2022-11-18T04:11:48;94402.84;;;3.38;100.00
10097;BME280;5087;42.662;23.466;2022-11-18T04:14:30;94385.81;;;3.29;100.00
10097;BME280;5087;42.662;23.466;2022-11-18T04:16:59;94373.19;;;3.15;100.00
10097;BME280;5087;42.662;23.466;2022-11-18T04:19:27;94392.22;;;3.33;100.00
10097;BME280;5087;42.662;23.466;2022-11-18T04:21:54;94397.22;;;3.54;100.00
10097;BME280;5087;42.662;23.466;2022-11-18T04:24:21;94398.25;;;3.39;100.00
10097;BME280;5087;42.662;23.466;2022-11-18T04:26:48;94397.56;;;3.33;100.00
10097;BME280;5087;42.662;23.466;2022-11-18T04:29:15;94411.13;;;3.56;100.00
10097;BME280;5087;42.662;23.466;2022-11-18T04:31:42;94413.44;;;3.76;100.00
10097;BME280;5087;42.662;23.466;2022-11-18T04:34:11;94411.13;;;3.70;100.00
10097;BME280;5087;42.662;23.466;2022-11-18T04:36:40;94401.97;;;3.57;100.00
10097;BME280;5087;42.662;23.466;2022-11-18T04:39:07;94402.75;;;3.43;100.00
10097;BME280;5087;42.662;23.466;2022-11-18T04:41:34;94409.28;;;3.37;100.00
10097;BME280;5087;42.662;23.466;2022-11-18T04:44:18;94424.47;;;3.61;100.00
10097;BME280;5087;42.662;23.466;2022-11-18T04:46:45;94398.81;;;3.55;100.00
10097;BME280;5087;42.662;23.466;2022-11-18T04:49:14;94420.28;;;3.55;100.00
10097;BME280;5087;42.662;23.466;2022-11-18T04:51:44;94426.50;;;3.83;100.00
10097;BME280;5087;42.662;23.466;2022-11-18T04:54:11;94414.59;;;3.56;100.00
10097;BME280;5087;42.662;23.466;2022-11-18T04:56:39;94417.66;;;3.49;100.00
10097;BME280;5087;42.662;23.466;2022-11-18T04:59:06;94413.41;;;3.48;100.00
10097;BME280;5087;42.662;23.466;2022-11-18T05:01:33;94426.63;;;3.59;100.00
10097;BME280;5087;42.662;23.466;2022-11-18T05:04:01;94417.19;;;3.61;100.00
10097;BME280;5087;42.662;23.466;2022-11-18T05:06:31;94408.03;;;3.48;100.00
10097;BME280;5087;42.662;23.466;2022-11-18T05:08:59;94404.75;;;3.52;100.00
10097;BME280;5087;42.662;23.466;2022-11-18T05:11:26;94431.22;;;3.72;100.00
10097;BME280;5087;42.662;23.466;2022-11-18T05:14:12;94405.25;;;3.54;100.00
10097;BME280;5087;42.662;23.466;2022-11-18T05:16:39;94415.91;;;3.59;100.00
10097;BME280;5087;42.662;23.466;2022-11-18T05:19:06;94415.41;;;3.71;100.00
10097;BME280;5087;42.662;23.466;2022-11-18T05:21:35;94407.75;;;3.50;100.00
10097;BME280;5087;42.662;23.466;2022-11-18T05:24:03;94426.19;;;3.85;100.00
10097;BME280;5087;42.662;23.466;2022-11-18T05:26:31;94421.59;;;3.85;100.00
10097;BME280;5087;42.662;23.466;2022-11-18T05:28:58;94428.28;;;4.16;100.00
10097;BME280;5087;42.662;23.466;2022-11-18T05:31:25;94419.72;;;4.00;100.00
10097;BME280;5087;42.662;23.466;2022-11-18T05:33:52;94420.50;;;4.28;100.00
10097;BME280;5087;42.662;23.466;2022-11-18T05:36:20;94424.78;;;4.29;100.00
10097;BME280;5087;42.662;23.466;2022-11-18T05:38:49;94431.38;;;4.23;100.00
10097;BME280;5087;42.662;23.466;2022-11-18T05:41:16;94431.84;;;4.39;100.00
10097;BME280;5087;42.662;23.466;2022-11-18T05:43:58;94436.50;;;4.33;100.00
10097;BME280;5087;42.662;23.466;2022-11-18T05:46:25;94431.81;;;4.53;100.00
10097;BME280;5087;42.662;23.466;2022-11-18T05:48:52;94427.47;;;4.29;100.00
10097;BME280;5087;42.662;23.466;2022-11-18T05:51:23;94400.00;;;4.04;100.00
10097;BME280;5087;42.662;23.466;2022-11-18T05:53:53;94431.03;;;4.10;100.00
10097;BME280;5087;42.662;23.466;2022-11-18T05:56:23;94423.69;;;4.30;100.00
10097;BME280;5087;42.662;23.466;2022-11-18T05:58:51;94428.75;;;4.18;100.00
10097;BME280;5087;42.662;23.466;2022-11-18T06:01:21;94415.81;;;4.34;100.00
10097;BME280;5087;42.662;23.466;2022-11-18T06:03:53;94411.53;;;4.33;100.00
10097;BME280;5087;42.662;23.466;2022-11-18T06:06:21;94416.91;;;4.33;100.00
10097;BME280;5087;42.662;23.466;2022-11-18T06:08:55;94418.25;;;4.58;100.00
10097;BME280;5087;42.662;23.466;2022-11-18T06:11:25;94416.84;;;4.74;100.00
10097;BME280;5087;42.662;23.466;2022-11-18T06:13:56;94410.69;;;4.60;100.00
10097;BME280;5087;42.662;23.466;2022-11-18T06:16:27;94414.44;;;4.36;100.00
10097;BME280;5087;42.662;23.466;2022-11-18T06:18:56;94420.09;;;4.35;100.00
10097;BME280;5087;42.662;23.466;2022-11-18T06:21:24;94418.41;;;4.39;100.00
10097;BME280;5087;42.662;23.466;2022-11-18T06:23:52;94400.53;;;4.20;100.00
10097;BME280;5087;42.662;23.466;2022-11-18T06:26:22;94421.91;;;4.39;100.00
10097;BME280;5087;42.662;23.466;2022-11-18T06:28:50;94428.56;;;4.28;100.00
10097;BME280;5087;42.662;23.466;2022-11-18T06:31:17;94431.25;;;4.42;100.00
10097;BME280;5087;42.662;23.466;2022-11-18T06:33:44;94422.50;;;4.36;100.00
10097;BME280;5087;42.662;23.466;2022-11-18T06:36:11;94412.94;;;4.30;100.00
10097;BME280;5087;42.662;23.466;2022-11-18T06:38:38;94413.91;;;4.34;100.00
10097;BME280;5087;42.662;23.466;2022-11-18T06:41:05;94421.41;;;4.37;100.00
10097;BME280;5087;42.662;23.466;2022-11-18T06:43:34;94412.13;;;4.43;100.00
10097;BME280;5087;42.662;23.466;2022-11-18T06:46:10;94393.53;;;4.33;100.00
10097;BME280;5087;42.662;23.466;2022-11-18T06:49:01;94398.19;;;4.41;100.00
10097;BME280;5087;42.662;23.466;2022-11-18T06:51:29;94404.97;;;4.39;100.00
10097;BME280;5087;42.662;23.466;2022-11-18T06:53:58;94413.72;;;4.44;100.00
10097;BME280;5087;42.662;23.466;2022-11-18T06:56:26;94410.84;;;4.41;100.00
10097;BME280;5087;42.662;23.466;2022-11-18T06:58:55;94423.97;;;4.42;100.00
10097;BME280;5087;42.662;23.466;2022-11-18T07:01:25;94415.31;;;4.46;100.00
10097;BME280;5087;42.662;23.466;2022-11-18T07:03:52;94408.16;;;4.41;100.00
10097;BME280;5087;42.662;23.466;2022-11-18T07:06:24;94422.56;;;4.59;100.00
10097;BME280;5087;42.662;23.466;2022-11-18T07:08:51;94424.44;;;4.95;100.00
10097;BME280;5087;42.662;23.466;2022-11-18T07:11:20;94415.88;;;4.70;100.00
10097;BME280;5087;42.662;23.466;2022-11-18T07:13:48;94414.66;;;4.77;100.00
10097;BME280;5087;42.662;23.466;2022-11-18T07:16:21;94425.22;;;4.73;100.00
10097;BME280;5087;42.662;23.466;2022-11-18T07:18:49;94417.00;;;4.92;100.00
10097;BME280;5087;42.662;23.466;2022-11-18T07:21:19;94409.63;;;4.98;100.00
10097;BME280;5087;42.662;23.466;2022-11-18T07:23:47;94405.63;;;4.95;100.00
10097;BME280;5087;42.662;23.466;2022-11-18T07:26:15;94394.28;;;4.84;100.00
10097;BME280;5087;42.662;23.466;2022-11-18T07:28:42;94387.47;;;5.01;100.00
10097;BME280;5087;42.662;23.466;2022-11-18T07:31:11;94411.84;;;5.27;100.00
10097;BME280;5087;42.662;23.466;2022-11-18T07:33:41;94399.97;;;5.51;100.00
10097;BME280;5087;42.662;23.466;2022-11-18T07:36:10;94387.25;;;5.43;100.00
10097;BME280;5087;42.662;23.466;2022-11-18T07:38:42;94391.38;;;5.71;100.00
10097;BME280;5087;42.662;23.466;2022-11-18T07:41:11;94394.97;;;5.35;100.00
10097;BME280;5087;42.662;23.466;2022-11-18T07:43:39;94380.75;;;5.35;100.00
10097;BME280;5087;42.662;23.466;2022-11-18T07:46:11;94370.38;;;5.51;100.00
10097;BME280;5087;42.662;23.466;2022-11-18T07:48:39;94370.97;;;5.79;100.00
10097;BME280;5087;42.662;23.466;2022-11-18T07:51:07;94367.28;;;5.66;100.00
10097;BME280;5087;42.662;23.466;2022-11-18T07:53:35;94375.88;;;5.46;100.00
10097;BME280;5087;42.662;23.466;2022-11-18T07:56:04;94365.00;;;5.60;100.00
10097;BME280;5087;42.662;23.466;2022-11-18T07:58:31;94370.53;;;5.86;100.00
10097;BME280;5087;42.662;23.466;2022-11-18T08:01:06;94363.50;;;5.76;100.00
10097;BME280;5087;42.662;23.466;2022-11-18T08:03:33;94378.97;;;5.93;100.00
10097;BME280;5087;42.662;23.466;2022-11-18T08:06:02;94367.34;;;5.84;100.00
10097;BME280;5087;42.662;23.466;2022-11-18T08:08:30;94377.75;;;5.99;100.00
10097;BME280;5087;42.662;23.466;2022-11-18T08:10:59;94379.56;;;5.90;100.00
10097;BME280;5087;42.662;23.466;2022-11-18T08:13:27;94382.38;;;6.16;100.00
10097;BME280;5087;42.662;23.466;2022-11-18T08:15:58;94388.50;;;5.99;100.00
10097;BME280;5087;42.662;23.466;2022-11-18T08:18:27;94394.16;;;5.98;100.00
10097;BME280;5087;42.662;23.466;2022-11-18T08:20:54;94396.44;;;6.05;100.00
10097;BME280;5087;42.662;23.466;2022-11-18T08:23:30;94401.81;;;6.54;100.00
10097;BME280;5087;42.662;23.466;2022-11-18T08:26:01;94418.81;;;6.72;100.00
10097;BME280;5087;42.662;23.466;2022-11-18T08:28:30;94414.34;;;6.58;100.00
10097;BME280;5087;42.662;23.466;2022-11-18T08:30:58;94389.75;;;6.51;100.00
10097;BME280;5087;42.662;23.466;2022-11-18T08:33:25;94379.13;;;6.63;100.00
10097;BME280;5087;42.662;23.466;2022-11-18T08:35:52;94384.22;;;6.74;100.00
10097;BME280;5087;42.662;23.466;2022-11-18T08:38:19;94385.97;;;6.87;100.00
10097;BME280;5087;42.662;23.466;2022-11-18T08:40:48;94391.22;;;6.75;100.00
10097;BME280;5087;42.662;23.466;2022-11-18T08:43:15;94379.63;;;6.83;100.00
10097;BME280;5087;42.662;23.466;2022-11-18T08:45:42;94361.53;;;6.75;100.00
10097;BME280;5087;42.662;23.466;2022-11-18T08:48:09;94351.06;;;7.08;100.00
10097;BME280;5087;42.662;23.466;2022-11-18T08:50:36;94344.72;;;6.87;100.00
10097;BME280;5087;42.662;23.466;2022-11-18T08:53:03;94342.03;;;6.78;100.00
10097;BME280;5087;42.662;23.466;2022-11-18T08:55:30;94343.94;;;6.95;100.00
10097;BME280;5087;42.662;23.466;2022-11-18T08:57:59;94337.84;;;7.33;100.00
10097;BME280;5087;42.662;23.466;2022-11-18T09:00:26;94321.03;;;7.10;100.00
10097;BME280;5087;42.662;23.466;2022-11-18T09:02:53;94302.03;;;6.97;100.00
10097;BME280;5087;42.662;23.466;2022-11-18T09:05:21;94298.34;;;7.11;100.00
10097;BME280;5087;42.662;23.466;2022-11-18T09:07:48;94298.75;;;7.78;100.00
10097;BME280;5087;42.662;23.466;2022-11-18T09:10:15;94284.63;;;7.34;100.00
10097;BME280;5087;42.662;23.466;2022-11-18T09:12:42;94264.13;;;6.85;100.00
10097;BME280;5087;42.662;23.466;2022-11-18T09:15:11;94270.25;;;7.12;100.00
10097;BME280;5087;42.662;23.466;2022-11-18T09:17:38;94260.66;;;7.32;100.00
10097;BME280;5087;42.662;23.466;2022-11-18T09:20:06;94290.53;;;7.27;100.00
10097;BME280;5087;42.662;23.466;2022-11-18T09:22:35;94275.22;;;6.84;100.00
10097;BME280;5087;42.662;23.466;2022-11-18T09:25:02;94238.28;;;6.49;100.00
10097;BME280;5087;42.662;23.466;2022-11-18T09:27:29;94287.38;;;7.16;100.00
10097;BME280;5087;42.662;23.466;2022-11-18T09:29:56;94264.84;;;7.12;100.00
10097;BME280;5087;42.662;23.466;2022-11-18T09:32:25;94267.72;;;7.07;100.00
10097;BME280;5087;42.662;23.466;2022-11-18T09:34:52;94283.50;;;7.35;100.00
10097;BME280;5087;42.662;23.466;2022-11-18T09:37:19;94264.75;;;6.82;100.00
10097;BME280;5087;42.662;23.466;2022-11-18T09:39:47;94279.28;;;7.16;100.00
10097;BME280;5087;42.662;23.466;2022-11-18T09:42:26;94265.28;;;7.32;100.00
10097;BME280;5087;42.662;23.466;2022-11-18T09:45:14;94257.09;;;7.49;100.00
10097;BME280;5087;42.662;23.466;2022-11-18T09:47:45;94249.97;;;6.88;100.00
10097;BME280;5087;42.662;23.466;2022-11-18T09:50:15;94249.94;;;7.06;100.00
10097;BME280;5087;42.662;23.466;2022-11-18T09:52:46;94252.22;;;7.34;100.00
10097;BME280;5087;42.662;23.466;2022-11-18T09:55:16;94237.22;;;7.06;100.00
10097;BME280;5087;42.662;23.466;2022-11-18T09:57:46;94225.75;;;7.27;100.00
10097;BME280;5087;42.662;23.466;2022-11-18T10:00:16;94214.53;;;7.07;100.00
10097;BME280;5087;42.662;23.466;2022-11-18T10:02:53;94222.50;;;6.95;100.00
10097;BME280;5087;42.662;23.466;2022-11-18T10:05:25;94220.59;;;7.04;100.00
10097;BME280;5087;42.662;23.466;2022-11-18T10:08:04;94228.22;;;7.41;100.00
10097;BME280;5087;42.662;23.466;2022-11-18T10:10:47;94241.16;;;7.56;100.00
10097;BME280;5087;42.662;23.466;2022-11-18T10:13:29;94203.06;;;7.19;100.00
10097;BME280;5087;42.662;23.466;2022-11-18T10:32:34;94177.47;;;7.25;100.00
10097;BME280;5087;42.662;23.466;2022-11-18T10:35:02;94187.34;;;7.21;100.00
10097;BME280;5087;42.662;23.466;2022-11-18T10:37:31;94178.63;;;7.45;100.00
10097;BME280;5087;42.662;23.466;2022-11-18T10:40:00;94167.41;;;7.65;100.00
10097;BME280;5087;42.662;23.466;2022-11-18T10:42:34;94157.38;;;7.44;100.00
10097;BME280;5087;42.662;23.466;2022-11-18T10:45:15;94151.28;;;7.47;100.00
10097;BME280;5087;42.662;23.466;2022-11-18T10:47:56;94173.63;;;7.86;100.00
10097;BME280;5087;42.662;23.466;2022-11-18T10:50:33;94161.78;;;8.00;100.00
10097;BME280;5087;42.662;23.466;2022-11-18T10:53:02;94157.72;;;7.64;100.00
10097;BME280;5087;42.662;23.466;2022-11-18T10:55:30;94166.25;;;7.96;100.00
10097;BME280;5087;42.662;23.466;2022-11-18T10:57:59;94161.09;;;7.60;100.00
10097;BME280;5087;42.662;23.466;2022-11-18T11:00:43;94156.69;;;7.98;100.00
10097;BME280;5087;42.662;23.466;2022-11-18T11:03:26;94127.00;;;7.47;100.00
10097;BME280;5087;42.662;23.466;2022-11-18T11:06:17;94118.03;;;7.55;100.00
10097;BME280;5087;42.662;23.466;2022-11-18T11:08:48;94140.94;;;7.79;100.00
10097;BME280;5087;42.662;23.466;2022-11-18T11:11:21;94127.28;;;8.18;100.00
10097;BME280;5087;42.662;23.466;2022-11-18T11:13:53;94106.66;;;8.13;100.00
10097;BME280;5087;42.662;23.466;2022-11-18T11:16:22;94118.06;;;8.52;100.00
10097;BME280;5087;42.662;23.466;2022-11-18T11:18:57;94132.09;;;8.67;100.00
10097;BME280;5087;42.662;23.466;2022-11-18T11:21:26;94134.09;;;8.70;100.00
10097;BME280;5087;42.662;23.466;2022-11-18T11:23:53;94117.31;;;8.64;100.00
10097;BME280;5087;42.662;23.466;2022-11-18T11:26:29;94126.06;;;9.07;100.00
10097;BME280;5087;42.662;23.466;2022-11-18T11:29:04;94117.22;;;8.73;100.00
10097;BME280;5087;42.662;23.466;2022-11-18T11:31:40;94104.81;;;8.72;100.00
10097;BME280;5087;42.662;23.466;2022-11-18T11:34:16;94096.41;;;9.11;100.00
10097;BME280;5087;42.662;23.466;2022-11-18T11:36:50;94101.66;;;9.44;100.00
10097;BME280;5087;42.662;23.466;2022-11-18T11:39:36;94085.25;;;9.65;100.00
10097;BME280;5087;42.662;23.466;2022-11-18T11:42:14;94093.47;;;9.81;100.00
10097;BME280;5087;42.662;23.466;2022-11-18T11:44:55;94092.28;;;9.95;100.00
10097;BME280;5087;42.662;23.466;2022-11-18T11:47:31;94078.47;;;9.72;100.00
10097;BME280;5087;42.662;23.466;2022-11-18T11:50:21;94060.53;;;9.67;100.00
10097;BME280;5087;42.662;23.466;2022-11-18T11:53:04;94047.44;;;9.69;100.00
10097;BME280;5087;42.662;23.466;2022-11-18T11:55:47;94091.75;;;9.89;100.00
10097;BME280;5087;42.662;23.466;2022-11-18T11:58:24;94084.00;;;9.63;100.00
10097;BME280;5087;42.662;23.466;2022-11-18T12:01:02;94093.00;;;9.79;100.00
10097;BME280;5087;42.662;23.466;2022-11-18T12:03:44;94084.94;;;9.67;100.00
10097;BME280;5087;42.662;23.466;2022-11-18T12:06:13;94064.41;;;9.41;100.00
10097;BME280;5087;42.662;23.466;2022-11-18T12:08:49;94100.38;;;9.66;100.00
10097;BME280;5087;42.662;23.466;2022-11-18T12:11:29;94078.59;;;9.63;100.00
10097;BME280;5087;42.662;23.466;2022-11-18T12:14:02;94065.53;;;9.53;100.00
10097;BME280;5087;42.662;23.466;2022-11-18T12:16:36;94090.41;;;9.83;100.00
10097;BME280;5087;42.662;23.466;2022-11-18T12:19:11;94037.06;;;9.59;100.00
10097;BME280;5087;42.662;23.466;2022-11-18T12:21:57;94072.72;;;10.02;100.00
10097;BME280;5087;42.662;23.466;2022-11-18T12:24:36;94065.94;;;10.08;100.00
10097;BME280;5087;42.662;23.466;2022-11-18T12:27:10;94068.44;;;10.29;100.00
10097;BME280;5087;42.662;23.466;2022-11-18T12:29:43;94062.88;;;10.54;100.00
10097;BME280;5087;42.662;23.466;2022-11-18T12:35:24;94050.94;;;10.71;100.00
10097;BME280;5087;42.662;23.466;2022-11-18T12:37:59;94054.41;;;10.71;100.00
10097;BME280;5087;42.662;23.466;2022-11-18T12:40:38;94050.84;;;10.67;100.00
10097;BME280;5087;42.662;23.466;2022-11-18T12:46:54;94046.34;;;10.75;100.00
10097;BME280;5087;42.662;23.466;2022-11-18T12:52:48;94024.41;;;11.16;100.00
10097;BME280;5087;42.662;23.466;2022-11-18T12:55:21;94015.09;;;10.97;100.00
10097;BME280;5087;42.662;23.466;2022-11-18T12:57:49;94035.22;;;11.12;100.00
10097;BME280;5087;42.662;23.466;2022-11-18T13:00:33;94029.44;;;11.14;100.00
10097;BME280;5087;42.662;23.466;2022-11-18T13:03:24;93998.00;;;11.32;100.00
10097;BME280;5087;42.662;23.466;2022-11-18T13:06:02;94002.38;;;11.37;100.00
10097;BME280;5087;42.662;23.466;2022-11-18T13:08:31;94019.66;;;11.45;100.00
10097;BME280;5087;42.662;23.466;2022-11-18T13:11:06;94003.91;;;11.54;100.00
10097;BME280;5087;42.662;23.466;2022-11-18T13:13:52;93943.91;;;11.43;100.00
10097;BME280;5087;42.662;23.466;2022-11-18T13:16:42;93988.31;;;11.90;100.00
10097;BME280;5087;42.662;23.466;2022-11-18T13:19:38;93937.06;;;11.92;100.00
10097;BME280;5087;42.662;23.466;2022-11-18T13:22:16;93928.34;;;12.49;100.00
10097;BME280;5087;42.662;23.466;2022-11-18T13:25:01;93928.72;;;12.97;100.00
10097;BME280;5087;42.662;23.466;2022-11-18T13:27:40;93928.47;;;13.10;100.00
10097;BME280;5087;42.662;23.466;2022-11-18T13:30:11;93876.78;;;13.44;100.00
10097;BME280;5087;42.662;23.466;2022-11-18T13:32:42;93927.22;;;14.81;100.00
10097;BME280;5087;42.662;23.466;2022-11-18T13:35:12;93907.19;;;15.29;100.00
10097;BME280;5087;42.662;23.466;2022-11-18T13:37:49;93920.97;;;15.51;100.00
10097;BME280;5087;42.662;23.466;2022-11-18T13:40:19;93868.50;;;15.24;100.00
10097;BME280;5087;42.662;23.466;2022-11-18T13:42:48;93896.81;;;15.71;100.00
10097;BME280;5087;42.662;23.466;2022-11-18T13:45:16;93896.28;;;14.70;100.00
10097;BME280;5087;42.662;23.466;2022-11-18T13:47:46;93911.66;;;14.40;100.00
10097;BME280;5087;42.662;23.466;2022-11-18T13:50:18;93922.84;;;14.73;100.00
10097;BME280;5087;42.662;23.466;2022-11-18T13:52:55;93901.81;;;14.77;100.00
10097;BME280;5087;42.662;23.466;2022-11-18T13:55:27;93903.22;;;15.12;100.00
10097;BME280;5087;42.662;23.466;2022-11-18T13:58:01;93904.94;;;15.49;100.00
10097;BME280;5087;42.662;23.466;2022-11-18T14:00:33;93895.72;;;15.83;100.00
10097;BME280;5087;42.662;23.466;2022-11-18T14:03:04;93884.31;;;15.77;100.00
10097;BME280;5087;42.662;23.466;2022-11-18T14:05:32;93883.56;;;15.77;100.00
10097;BME280;5087;42.662;23.466;2022-11-18T14:08:02;93887.84;;;15.71;100.00
10097;BME280;5087;42.662;23.466;2022-11-18T14:10:33;93889.78;;;15.77;100.00
10097;BME280;5087;42.662;23.466;2022-11-18T14:13:16;93880.47;;;15.89;100.00
10097;BME280;5087;42.662;23.466;2022-11-18T14:15:44;93874.25;;;16.03;100.00
10097;BME280;5087;42.662;23.466;2022-11-18T14:18:18;93871.88;;;15.87;100.00
10097;BME280;5087;42.662;23.466;2022-11-18T14:20:50;93873.13;;;16.26;100.00
10097;BME280;5087;42.662;23.466;2022-11-18T14:23:19;93878.94;;;16.21;100.00
10097;BME280;5087;42.662;23.466;2022-11-18T14:25:48;93891.06;;;16.02;100.00
10097;BME280;5087;42.662;23.466;2022-11-18T14:28:21;93899.69;;;16.29;100.00
10097;BME280;5087;42.662;23.466;2022-11-18T14:31:03;93903.22;;;16.26;100.00
10097;BME280;5087;42.662;23.466;2022-11-18T14:33:32;93894.63;;;16.24;100.00
10097;BME280;5087;42.662;23.466;2022-11-18T14:36:01;93878.19;;;16.24;100.00
10097;BME280;5087;42.662;23.466;2022-11-18T14:38:35;93888.38;;;16.34;100.00
10097;BME280;5087;42.662;23.466;2022-11-18T14:41:08;93884.47;;;16.24;100.00
10097;BME280;5087;42.662;23.466;2022-11-18T14:43:37;93885.22;;;16.28;100.00
10097;BME280;5087;42.662;23.466;2022-11-18T14:46:11;93871.53;;;16.39;100.00
10097;BME280;5087;42.662;23.466;2022-11-18T14:48:39;93873.88;;;16.44;100.00
10097;BME280;5087;42.662;23.466;2022-11-18T14:51:11;93865.31;;;16.35;100.00
10097;BME280;5087;42.662;23.466;2022-11-18T14:53:38;93844.56;;;16.38;100.00
10097;BME280;5087;42.662;23.466;2022-11-18T14:56:11;93865.28;;;16.60;100.00
10097;BME280;5087;42.662;23.466;2022-11-18T14:58:44;93871.16;;;16.52;100.00
10097;BME280;5087;42.662;23.466;2022-11-18T15:01:11;93869.59;;;16.58;100.00
10097;BME280;5087;42.662;23.466;2022-11-18T15:03:39;93883.66;;;16.53;100.00
10097;BME280;5087;42.662;23.466;2022-11-18T15:06:11;93888.38;;;16.49;100.00
10097;BME280;5087;42.662;23.466;2022-11-18T15:08:39;93915.34;;;16.28;100.00
10097;BME280;5087;42.662;23.466;2022-11-18T15:11:07;93912.63;;;16.32;100.00
10097;BME280;5087;42.662;23.466;2022-11-18T15:13:35;93913.38;;;16.14;100.00
10097;BME280;5087;42.662;23.466;2022-11-18T15:16:10;93931.31;;;15.97;100.00
10097;BME280;5087;42.662;23.466;2022-11-18T15:18:38;93951.63;;;15.93;100.00
10097;BME280;5087;42.662;23.466;2022-11-18T15:21:06;93932.88;;;15.95;100.00
10097;BME280;5087;42.662;23.466;2022-11-18T15:23:33;93918.41;;;16.02;100.00
10097;BME280;5087;42.662;23.466;2022-11-18T15:26:00;93934.06;;;16.01;100.00
10097;BME280;5087;42.662;23.466;2022-11-18T15:28:28;93932.09;;;15.94;100.00
10097;BME280;5087;42.662;23.466;2022-11-18T15:30:56;93939.19;;;16.13;100.00
10097;BME280;5087;42.662;23.466;2022-11-18T15:33:24;93923.09;;;15.94;100.00
10097;BME280;5087;42.662;23.466;2022-11-18T15:35:52;93922.72;;;16.06;100.00
10097;BME280;5087;42.662;23.466;2022-11-18T15:38:19;93907.06;;;15.92;100.00
10097;BME280;5087;42.662;23.466;2022-11-18T15:40:46;93903.84;;;15.69;100.00
10097;BME280;5087;42.662;23.466;2022-11-18T15:43:13;93885.84;;;15.57;100.00
10097;BME280;5087;42.662;23.466;2022-11-18T15:45:42;93836.72;;;16.22;100.00
10097;BME280;5087;42.662;23.466;2022-11-18T15:48:10;93858.63;;;16.36;100.00
10097;BME280;5087;42.662;23.466;2022-11-18T15:50:38;93863.72;;;16.59;100.00
10097;BME280;5087;42.662;23.466;2022-11-18T15:53:06;93876.25;;;16.53;100.00
10097;BME280;5087;42.662;23.466;2022-11-18T15:55:33;93869.97;;;16.17;100.00
10097;BME280;5087;42.662;23.466;2022-11-18T15:58:00;93873.75;;;14.80;100.00
10097;BME280;5087;42.662;23.466;2022-11-18T16:00:27;93904.59;;;13.60;100.00
10097;BME280;5087;42.662;23.466;2022-11-18T16:02:54;93890.78;;;12.85;100.00
10097;BME280;5087;42.662;23.466;2022-11-18T16:05:21;93893.69;;;12.46;100.00
10097;BME280;5087;42.662;23.466;2022-11-18T16:07:50;93880.84;;;12.43;100.00
10097;BME280;5087;42.662;23.466;2022-11-18T16:10:17;93845.50;;;11.77;100.00
10097;BME280;5087;42.662;23.466;2022-11-18T16:13:01;93883.41;;;11.89;100.00
10097;BME280;5087;42.662;23.466;2022-11-18T16:15:29;93876.03;;;11.66;100.00
10097;BME280;5087;42.662;23.466;2022-11-18T16:18:15;93861.16;;;11.40;100.00
10097;BME280;5087;42.662;23.466;2022-11-18T16:20:44;93898.47;;;11.63;100.00
10097;BME280;5087;42.662;23.466;2022-11-18T16:23:13;93894.03;;;11.75;100.00
10097;BME280;5087;42.662;23.466;2022-11-18T16:25:43;93872.13;;;12.33;100.00
10097;BME280;5087;42.662;23.466;2022-11-18T16:28:12;93891.28;;;12.41;100.00
10097;BME280;5087;42.662;23.466;2022-11-18T16:30:39;93913.72;;;12.11;100.00
10097;BME280;5087;42.662;23.466;2022-11-18T16:33:23;93870.41;;;11.79;100.00
10097;BME280;5087;42.662;23.466;2022-11-18T16:35:51;93921.25;;;12.17;100.00
10097;BME280;5087;42.662;23.466;2022-11-18T16:38:22;93917.63;;;13.74;100.00
10097;BME280;5087;42.662;23.466;2022-11-18T16:40:54;93952.63;;;14.03;100.00
10097;BME280;5087;42.662;23.466;2022-11-18T16:43:21;93961.09;;;14.32;100.00
10097;BME280;5087;42.662;23.466;2022-11-18T16:45:49;93956.09;;;14.41;100.00
10097;BME280;5087;42.662;23.466;2022-11-18T16:48:17;93962.75;;;14.85;100.00
10097;BME280;5087;42.662;23.466;2022-11-18T16:50:44;93897.97;;;15.66;100.00
10097;BME280;5087;42.662;23.466;2022-11-18T16:53:12;93906.94;;;15.60;100.00
10097;BME280;5087;42.662;23.466;2022-11-18T16:55:40;93924.06;;;15.42;100.00
10097;BME280;5087;42.662;23.466;2022-11-18T16:58:10;93948.13;;;15.18;100.00
10097;BME280;5087;42.662;23.466;2022-11-18T17:00:37;93970.22;;;15.55;100.00